Time;durP1;ratioP1;P1;durP2;ratioP2;P2;SDS_P1;SDS_P2;PMS_P1;PMS_P2;Temp;Humidity;BMP_temperature;BMP_pressure;BME280_temperature;BME280_humidity;BME280_pressure;Samples;Min_cycle;Max_cycle;Signal;HPM_P1;HPM_P2
2022/03/02 00:01:19;;;;;;;32.08;19.38;;;;;;;3.89;75.28;102595.63;5050113;28;20033;-77
2022/03/02 00:03:44;;;;;;;33.15;18.88;;;;;;;3.87;73.71;102593.81;5050597;28;20357;-76
2022/03/02 00:06:10;;;;;;;36.20;19.30;;;;;;;3.84;73.66;102593.72;5050504;28;20029;-77
2022/03/02 00:08:36;;;;;;;36.58;19.52;;;;;;;3.79;73.99;102595.25;5051213;28;20025;-77
2022/03/02 00:11:02;;;;;;;33.95;19.48;;;;;;;3.76;74.50;102598.63;5049811;28;20357;-77
2022/03/02 00:13:28;;;;;;;33.95;20.20;;;;;;;3.67;75.60;102593.16;5050120;28;20033;-77
2022/03/02 00:15:53;;;;;;;34.28;19.95;;;;;;;3.68;76.03;102592.31;5053766;28;20082;-77
2022/03/02 00:18:18;;;;;;;31.17;18.98;;;;;;;3.64;76.33;102601.66;5053459;28;20029;-76
2022/03/02 00:20:44;;;;;;;35.05;19.55;;;;;;;3.58;75.80;102605.75;5054371;28;20067;-77
2022/03/02 00:23:09;;;;;;;35.35;19.83;;;;;;;3.52;76.09;102612.44;5054231;28;20029;-77
2022/03/02 00:25:35;;;;;;;33.15;19.30;;;;;;;3.43;75.19;102601.84;5054413;28;20036;-77
2022/03/02 00:28:00;;;;;;;37.78;20.10;;;;;;;3.38;76.51;102600.78;5054255;28;20029;-76
2022/03/02 00:30:28;;;;;;;34.97;20.70;;;;;;;3.25;77.18;102588.31;5053723;28;20036;-76
2022/03/02 00:32:54;;;;;;;34.83;19.88;;;;;;;3.32;77.73;102602.28;5053955;28;20116;-76
2022/03/02 00:35:19;;;;;;;35.63;20.10;;;;;;;3.27;79.33;102607.28;5054552;28;20037;-76
2022/03/02 00:37:45;;;;;;;33.45;20.13;;;;;;;3.20;78.69;102597.56;5054166;28;20029;-77
2022/03/02 00:40:10;;;;;;;37.00;20.98;;;;;;;3.09;78.67;102589.47;5053907;28;20426;-77
2022/03/02 00:42:36;;;;;;;35.03;20.77;;;;;;;3.09;78.84;102609.22;5054021;28;20021;-77
2022/03/02 00:45:01;;;;;;;34.75;20.45;;;;;;;3.01;79.24;102601.22;5053651;28;20029;-77
2022/03/02 00:47:27;;;;;;;37.85;20.70;;;;;;;2.99;79.86;102608.00;5054208;28;20060;-76
2022/03/02 00:49:52;;;;;;;37.17;20.48;;;;;;;2.92;79.71;102593.16;5053488;28;20477;-77
2022/03/02 00:52:18;;;;;;;37.42;20.50;;;;;;;2.90;80.53;102597.38;5053405;28;20043;-76
2022/03/02 00:54:43;;;;;;;33.97;20.55;;;;;;;2.84;79.05;102598.00;5054337;28;20063;-76
2022/03/02 00:57:08;;;;;;;33.10;20.38;;;;;;;2.77;79.74;102586.59;5053431;28;20037;-76
2022/03/02 00:59:34;;;;;;;37.67;21.70;;;;;;;2.81;80.24;102608.19;5053446;28;20075;-76
2022/03/02 01:01:59;;;;;;;35.53;19.70;;;;;;;2.80;80.48;102597.03;5054574;28;20090;-76
2022/03/02 01:04:25;;;;;;;34.75;19.70;;;;;;;2.76;79.46;102584.88;5053498;28;20037;-76
2022/03/02 01:06:50;;;;;;;34.53;20.38;;;;;;;2.78;79.68;102587.50;5053690;28;20032;-77
2022/03/02 01:09:16;;;;;;;35.10;20.58;;;;;;;2.78;79.88;102590.09;5053573;28;20407;-77
2022/03/02 01:11:41;;;;;;;34.85;19.83;;;;;;;2.75;80.82;102574.53;5053837;28;20064;-76
2022/03/02 01:14:06;;;;;;;33.42;19.35;;;;;;;2.71;81.21;102577.78;5052287;28;20127;-77
2022/03/02 01:16:33;;;;;;;34.88;20.20;;;;;;;2.65;80.95;102570.72;5053582;28;20029;-77
2022/03/02 01:18:58;;;;;;;33.08;19.52;;;;;;;2.63;81.14;102571.50;5053876;28;20017;-76
2022/03/02 01:21:23;;;;;;;32.38;19.88;;;;;;;2.57;81.05;102572.13;5052984;28;20032;-76
2022/03/02 01:23:49;;;;;;;37.70;21.08;;;;;;;2.51;79.83;102562.47;5053760;28;20524;-76
2022/03/02 01:26:14;;;;;;;36.05;20.10;;;;;;;2.49;80.37;102564.13;5052373;28;20107;-77
2022/03/02 01:28:40;;;;;;;38.13;20.65;;;;;;;2.45;81.18;102564.84;5053002;28;20061;-76
2022/03/02 01:31:05;;;;;;;35.75;19.95;;;;;;;2.42;81.94;102559.59;5053406;28;20025;-76
2022/03/02 01:33:30;;;;;;;33.90;20.05;;;;;;;2.38;81.40;102562.84;5053430;28;20078;-76
2022/03/02 01:35:56;;;;;;;33.42;19.00;;;;;;;2.32;81.39;102553.22;5051658;28;20053;-76
2022/03/02 01:38:21;;;;;;;35.80;18.92;;;;;;;2.31;81.81;102548.00;5053319;28;20032;-76
2022/03/02 01:40:47;;;;;;;34.17;19.40;;;;;;;2.21;81.69;102538.19;5052419;28;20033;-76
2022/03/02 01:43:13;;;;;;;34.35;18.80;;;;;;;2.24;81.12;102552.03;5052923;28;20499;-76
2022/03/02 01:45:39;;;;;;;32.22;19.75;;;;;;;2.22;82.40;102550.22;5053251;28;20029;-77
2022/03/02 01:48:06;;;;;;;35.30;20.25;;;;;;;2.20;80.75;102551.88;5051929;28;20064;-76
2022/03/02 01:50:32;;;;;;;35.30;20.08;;;;;;;2.19;80.06;102552.66;5053329;28;20117;-77
2022/03/02 01:52:58;;;;;;;35.40;19.77;;;;;;;2.18;80.73;102546.66;5052896;28;20032;-76
2022/03/02 01:55:23;;;;;;;33.20;20.48;;;;;;;2.19;81.05;102545.84;5052446;28;20037;-76
2022/03/02 01:57:50;;;;;;;34.65;20.00;;;;;;;2.22;80.11;102548.50;5053386;28;20031;-76
2022/03/02 02:00:19;;;;;;;34.22;19.73;;;;;;;2.22;80.82;102552.78;5052470;28;20108;-76
2022/03/02 02:02:45;;;;;;;34.67;19.98;;;;;;;2.22;80.15;102542.50;5051867;28;20377;-76
2022/03/02 02:05:11;;;;;;;38.60;20.30;;;;;;;2.18;79.89;102541.50;5052054;28;20035;-76
2022/03/02 02:07:36;;;;;;;35.35;20.23;;;;;;;2.13;78.21;102524.16;5053336;28;20033;-76
2022/03/02 02:10:03;;;;;;;33.03;19.98;;;;;;;2.18;79.59;102548.34;5050896;28;20432;-76
2022/03/02 02:12:28;;;;;;;34.15;19.60;;;;;;;2.18;79.65;102536.34;5052755;28;20213;-76
2022/03/02 02:14:54;;;;;;;32.50;19.27;;;;;;;2.15;78.30;102525.06;5052166;28;20433;-76
2022/03/02 02:17:19;;;;;;;31.77;19.67;;;;;;;2.14;77.84;102518.19;5051829;28;20033;-76
2022/03/02 02:19:44;;;;;;;34.08;17.92;;;;;;;2.13;76.82;102513.88;5052688;28;20107;-76
2022/03/02 02:22:09;;;;;;;33.47;18.95;;;;;;;2.17;76.98;102523.44;5052003;28;20048;-76
2022/03/02 02:24:35;;;;;;;36.60;19.00;;;;;;;2.16;77.00;102524.25;5051780;28;20025;-76
2022/03/02 02:27:01;;;;;;;33.22;18.63;;;;;;;2.13;77.31;102519.00;5051936;28;20102;-76
2022/03/02 02:29:29;;;;;;;32.50;19.08;;;;;;;2.13;78.00;102527.59;5051868;28;20028;-76
2022/03/02 02:31:55;;;;;;;32.35;18.92;;;;;;;2.13;78.11;102521.59;5051588;28;20065;-76
2022/03/02 02:34:20;;;;;;;32.50;19.27;;;;;;;2.10;77.27;102523.22;5052162;28;20126;-76
2022/03/02 02:36:46;;;;;;;33.30;18.42;;;;;;;2.11;76.83;102513.78;5052734;28;20488;-76
2022/03/02 02:39:12;;;;;;;33.28;18.48;;;;;;;2.12;77.60;102510.38;5049539;28;20037;-76
2022/03/02 02:41:37;;;;;;;34.97;19.48;;;;;;;2.13;78.78;102513.88;5053239;28;20032;-76
2022/03/02 02:44:03;;;;;;;34.03;18.70;;;;;;;2.15;79.52;102522.50;5050523;28;20115;-76
2022/03/02 02:46:28;;;;;;;38.42;19.13;;;;;;;2.08;78.38;102501.69;5051218;28;20040;-76
2022/03/02 02:48:53;;;;;;;31.90;18.98;;;;;;;2.13;78.20;102511.28;5051657;28;20106;-76
2022/03/02 02:51:19;;;;;;;34.63;18.70;;;;;;;2.13;78.56;102507.03;5051085;28;20321;-76
2022/03/02 02:53:44;;;;;;;36.30;19.73;;;;;;;2.13;79.46;102501.00;5052319;28;20021;-76
2022/03/02 02:56:09;;;;;;;31.85;18.40;;;;;;;2.13;78.82;102504.44;5051108;28;20040;-76
2022/03/02 02:58:35;;;;;;;35.17;19.42;;;;;;;2.16;76.63;102511.38;5050912;28;20024;-76
2022/03/02 03:01:00;;;;;;;37.40;19.70;;;;;;;2.15;76.44;102510.50;5050997;28;20111;-76
2022/03/02 03:03:25;;;;;;;33.55;18.85;;;;;;;2.16;76.37;102512.28;5051465;28;20061;-76
2022/03/02 03:05:52;;;;;;;33.03;18.60;;;;;;;2.13;77.91;102501.88;5050845;28;20029;-76
2022/03/02 03:08:17;;;;;;;30.02;17.48;;;;;;;2.17;75.50;102508.00;5051676;28;20033;-76
2022/03/02 03:10:45;;;;;;;28.08;17.77;;;;;;;2.18;76.59;102510.63;5051604;28;20115;-76
2022/03/02 03:13:12;;;;;;;35.65;17.98;;;;;;;2.16;75.41;102503.66;5069061;28;20043;-76
2022/03/02 03:15:38;;;;;;;30.48;17.50;;;;;;;2.14;76.77;102500.16;5053933;28;20024;-76
2022/03/02 03:18:05;;;;;;;32.90;17.52;;;;;;;2.13;75.31;102503.56;5051266;28;20365;-76
2022/03/02 03:20:31;;;;;;;32.70;18.52;;;;;;;2.09;74.79;102495.75;5047504;28;20373;-76
2022/03/02 03:22:58;;;;;;;30.90;17.80;;;;;;;2.13;74.96;102496.72;5051841;28;20032;-76
2022/03/02 03:25:24;;;;;;;35.75;18.17;;;;;;;2.12;75.41;102497.53;5051288;28;20029;-76
2022/03/02 03:27:50;;;;;;;34.70;18.88;;;;;;;2.10;75.53;102505.19;5049974;28;20484;-76
2022/03/02 03:30:19;;;;;;;32.03;17.73;;;;;;;2.07;74.66;102497.38;5050807;28;20079;-76
2022/03/02 03:32:45;;;;;;;32.25;17.77;;;;;;;2.07;74.96;102494.78;5051485;28;20033;-76
2022/03/02 03:35:12;;;;;;;36.22;18.27;;;;;;;2.09;74.16;102497.41;5050217;28;20397;-76
2022/03/02 03:37:37;;;;;;;28.50;16.27;;;;;;;2.01;73.50;102491.97;5051220;28;20025;-76
2022/03/02 03:40:05;;;;;;;30.35;16.90;;;;;;;2.08;72.53;102503.38;5051074;28;20021;-76
2022/03/02 03:42:31;;;;;;;33.00;17.65;;;;;;;2.09;73.39;102500.88;5049808;28;20041;-76
2022/03/02 03:44:56;;;;;;;32.97;18.52;;;;;;;2.10;73.26;102491.47;5050697;28;20029;-76
2022/03/02 03:47:21;;;;;;;28.83;17.10;;;;;;;2.09;73.55;102490.59;5050363;28;20102;-76
2022/03/02 03:49:46;;;;;;;28.50;16.10;;;;;;;2.08;73.20;102487.94;5050868;28;20052;-76
2022/03/02 03:52:12;;;;;;;28.75;16.92;;;;;;;2.08;74.18;102482.81;5049436;28;20063;-76
2022/03/02 03:54:37;;;;;;;28.00;16.63;;;;;;;2.05;73.91;102488.69;5050733;28;20021;-76
2022/03/02 03:57:05;;;;;;;28.98;16.88;;;;;;;2.09;72.95;102484.53;5051194;28;20072;-76
2022/03/02 03:59:30;;;;;;;29.45;16.80;;;;;;;2.06;72.58;102482.75;5050211;28;20028;-76
2022/03/02 04:01:55;;;;;;;30.35;16.63;;;;;;;2.06;72.36;102487.91;5050126;28;20044;-76
2022/03/02 04:04:21;;;;;;;30.17;16.25;;;;;;;2.04;72.72;102486.97;5051023;28;20120;-76
2022/03/02 04:06:46;;;;;;;29.27;15.85;;;;;;;2.05;71.28;102487.81;5051220;28;20025;-76
2022/03/02 04:09:12;;;;;;;31.45;16.50;;;;;;;2.05;71.99;102488.69;5049513;28;20044;-76
2022/03/02 04:11:37;;;;;;;28.42;16.85;;;;;;;2.00;71.74;102466.22;5050799;28;20029;-76
2022/03/02 04:14:02;;;;;;;31.10;16.88;;;;;;;2.04;70.97;102479.25;5050620;28;20048;-76
2022/03/02 04:16:28;;;;;;;28.67;16.85;;;;;;;2.04;72.30;102481.81;5049997;28;20442;-76
2022/03/02 04:18:53;;;;;;;28.80;15.75;;;;;;;2.04;71.54;102474.09;5050674;28;20032;-76
2022/03/02 04:21:21;;;;;;;28.77;16.80;;;;;;;2.01;71.32;102471.41;5050594;28;20041;-76
2022/03/02 04:23:47;;;;;;;27.75;16.20;;;;;;;1.99;71.63;102467.88;5049951;28;20132;-76
2022/03/02 04:26:13;;;;;;;31.48;16.77;;;;;;;1.92;72.10;102452.16;5050485;28;20053;-76
2022/03/02 04:28:38;;;;;;;29.10;15.95;;;;;;;1.96;70.46;102467.78;5050158;28;20036;-76
2022/03/02 04:31:04;;;;;;;28.63;15.82;;;;;;;1.94;71.71;102460.84;5049949;28;20493;-76
2022/03/02 04:33:29;;;;;;;27.30;15.45;;;;;;;1.90;71.07;102462.41;5050488;28;20029;-76
2022/03/02 04:35:55;;;;;;;24.30;15.20;;;;;;;1.84;71.16;102454.47;5050519;28;20029;-76
2022/03/02 04:38:20;;;;;;;27.55;16.35;;;;;;;1.88;71.64;102453.75;5049903;28;20485;-76
2022/03/02 04:40:45;;;;;;;29.15;15.00;;;;;;;1.84;71.22;102454.47;5050464;28;20017;-76
2022/03/02 04:43:11;;;;;;;28.63;15.82;;;;;;;1.82;71.53;102449.25;5050046;28;20025;-76
2022/03/02 04:45:36;;;;;;;30.38;16.05;;;;;;;1.82;70.95;102458.66;5049983;28;20154;-76
2022/03/02 04:48:02;;;;;;;27.88;14.90;;;;;;;1.82;72.23;102450.94;5049879;28;20041;-76
2022/03/02 04:50:27;;;;;;;29.52;15.18;;;;;;;1.76;71.86;102443.88;5050424;28;20480;-76
2022/03/02 04:52:54;;;;;;;26.75;15.27;;;;;;;1.79;71.47;102453.41;5049904;28;20041;-76
2022/03/02 04:55:20;;;;;;;27.73;15.68;;;;;;;1.76;71.60;102448.13;5050462;28;20029;-76
2022/03/02 04:57:49;;;;;;;29.80;15.23;;;;;;;1.74;70.53;102444.66;5049454;28;20033;-76
2022/03/02 05:00:18;;;;;;;30.15;15.93;;;;;;;1.74;71.24;102442.09;5049886;28;20029;-76
2022/03/02 05:02:44;;;;;;;27.92;15.48;;;;;;;1.72;71.72;102436.00;5053805;28;20021;-76
2022/03/02 05:05:13;;;;;;;29.73;15.70;;;;;;;1.71;71.48;102440.25;5053081;28;20078;-76
2022/03/02 05:07:40;;;;;;;27.45;16.25;;;;;;;1.68;72.67;102441.84;5053194;28;20044;-76
2022/03/02 05:10:06;;;;;;;26.90;15.77;;;;;;;1.69;72.85;102438.44;5054049;28;20047;-76
2022/03/02 05:12:32;;;;;;;25.20;15.65;;;;;;;1.68;71.62;102439.28;5053164;28;20047;-76
2022/03/02 05:14:57;;;;;;;28.33;14.68;;;;;;;1.66;72.21;102438.31;5053816;28;20028;-76
2022/03/02 05:17:23;;;;;;;25.08;14.93;;;;;;;1.61;71.81;102435.59;5053385;28;20068;-76
2022/03/02 05:19:48;;;;;;;27.95;15.85;;;;;;;1.64;71.36;102439.16;5053000;28;20086;-76
2022/03/02 05:22:14;;;;;;;27.13;15.35;;;;;;;1.63;73.08;102432.25;5053291;28;20533;-77
2022/03/02 05:24:40;;;;;;;31.20;15.68;;;;;;;1.61;72.29;102433.00;5053985;28;20452;-76
2022/03/02 05:27:06;;;;;;;25.42;13.90;;;;;;;1.64;72.08;102428.88;5051079;28;20100;-76
2022/03/02 05:29:31;;;;;;;26.67;14.55;;;;;;;1.65;71.92;102440.03;5053974;28;20538;-76
2022/03/02 05:31:56;;;;;;;29.13;16.05;;;;;;;1.63;72.28;102433.94;5053438;28;20075;-77
2022/03/02 05:34:22;;;;;;;31.52;15.70;;;;;;;1.62;72.07;102434.75;5052368;28;20040;-77
2022/03/02 05:36:47;;;;;;;28.65;15.73;;;;;;;1.56;71.86;102425.09;5052840;28;20032;-76
2022/03/02 05:39:12;;;;;;;30.52;15.32;;;;;;;1.59;74.47;102424.34;5053473;28;20492;-76
2022/03/02 05:41:38;;;;;;;26.25;14.77;;;;;;;1.57;73.58;102437.16;5052570;28;20503;-76
2022/03/02 05:44:04;;;;;;;26.75;15.15;;;;;;;1.51;72.60;102426.63;5052396;28;20025;-76
2022/03/02 05:46:30;;;;;;;26.75;14.80;;;;;;;1.51;73.43;102429.22;5052972;28;20029;-76
2022/03/02 05:48:55;;;;;;;25.27;14.05;;;;;;;1.52;71.49;102427.50;5052154;28;20047;-76
2022/03/02 05:51:20;;;;;;;27.50;15.15;;;;;;;1.50;72.31;102424.88;5052932;28;20456;-76
2022/03/02 05:53:46;;;;;;;24.35;14.93;;;;;;;1.49;71.71;102423.13;5053296;28;20033;-76
2022/03/02 05:56:11;;;;;;;24.98;14.80;;;;;;;1.48;71.01;102420.50;5051299;28;20443;-76
2022/03/02 05:58:36;;;;;;;26.80;14.73;;;;;;;1.50;70.64;102424.00;5053878;28;20104;-76
2022/03/02 06:01:03;;;;;;;27.70;14.52;;;;;;;1.51;71.35;102420.63;5052074;28;20040;-76
2022/03/02 06:03:29;;;;;;;24.25;14.98;;;;;;;1.54;72.57;102433.59;5052711;28;20652;-76
2022/03/02 06:05:55;;;;;;;24.30;15.10;;;;;;;1.53;72.67;102430.13;5052862;28;20021;-76
2022/03/02 06:08:20;;;;;;;24.65;13.90;;;;;;;1.46;70.88;102417.84;5051902;28;20071;-76
2022/03/02 06:10:47;;;;;;;27.20;15.43;;;;;;;1.50;71.50;102432.56;5052416;28;20032;-76
2022/03/02 06:13:14;;;;;;;24.45;13.85;;;;;;;1.49;70.51;102435.09;5052351;28;20041;-76
2022/03/02 06:15:40;;;;;;;27.73;14.90;;;;;;;1.47;71.25;102434.16;5051956;28;20021;-76
2022/03/02 06:18:06;;;;;;;28.83;14.73;;;;;;;1.44;72.82;102432.38;5052732;28;20033;-76
2022/03/02 06:20:31;;;;;;;28.90;15.60;;;;;;;1.43;71.17;102430.59;5052270;28;20037;-76
2022/03/02 06:22:57;;;;;;;26.50;13.93;;;;;;;1.37;69.85;102426.09;5051734;28;20032;-76
2022/03/02 06:25:23;;;;;;;26.02;14.55;;;;;;;1.38;72.10;102434.69;5051868;28;20039;-76
2022/03/02 06:27:48;;;;;;;32.75;14.30;;;;;;;1.33;72.43;102426.78;5052757;28;20032;-76
2022/03/02 06:30:14;;;;;;;25.25;13.90;;;;;;;1.36;72.37;102436.31;5051154;28;20025;-76
2022/03/02 06:32:39;;;;;;;29.67;15.32;;;;;;;1.33;71.59;102433.63;5052718;28;20433;-76
2022/03/02 06:35:06;;;;;;;23.20;13.55;;;;;;;1.32;71.59;102432.75;5052281;28;20517;-76
2022/03/02 06:37:33;;;;;;;25.98;13.77;;;;;;;1.32;70.23;102440.44;5051735;28;20029;-76
2022/03/02 06:40:17;;;;;;;24.80;13.93;;;;;;;1.30;70.14;102436.06;5051916;28;20021;-76
2022/03/02 06:42:48;;;;;;;23.95;14.30;;;;;;;1.32;71.56;102435.31;5052668;28;20083;-76
2022/03/02 06:45:40;;;;;;;27.60;14.40;;;;;;;1.33;71.13;102434.47;5049451;28;20067;-76
2022/03/02 06:48:34;;;;;;;31.17;14.02;;;;;;;1.35;70.35;102435.44;5051617;28;20086;-76
2022/03/02 06:51:01;;;;;;;27.92;13.80;;;;;;;1.37;70.45;102446.66;5050610;28;20029;-76
2022/03/02 06:53:30;;;;;;;26.30;14.23;;;;;;;1.38;71.60;102447.53;5051999;28;20028;-76
2022/03/02 06:55:57;;;;;;;23.23;13.63;;;;;;;1.38;70.24;102447.53;5051580;28;20037;-76
2022/03/02 06:58:24;;;;;;;25.27;13.65;;;;;;;1.38;69.91;102450.09;5050222;28;20037;-76
2022/03/02 07:00:53;;;;;;;26.45;14.75;;;;;;;1.36;69.74;102446.59;5052164;28;20067;-76
2022/03/02 07:03:19;;;;;;;24.17;13.57;;;;;;;1.40;70.90;102449.31;5050439;28;20029;-76
2022/03/02 07:05:46;;;;;;;25.50;14.38;;;;;;;1.39;71.48;102447.59;5051524;28;20032;-76
2022/03/02 07:08:11;;;;;;;27.55;13.70;;;;;;;1.41;69.78;102450.22;5051263;28;20078;-76
2022/03/02 07:10:37;;;;;;;28.52;13.88;;;;;;;1.43;71.31;102451.16;5051662;28;20120;-76
2022/03/02 07:13:05;;;;;;;25.30;13.52;;;;;;;1.45;70.10;102452.09;5050737;28;20119;-76
2022/03/02 07:15:32;;;;;;;24.58;13.57;;;;;;;1.47;70.40;102453.06;5051604;28;20032;-76
2022/03/02 07:18:04;;;;;;;22.88;13.38;;;;;;;1.48;69.53;102444.50;5052140;28;20025;-76
2022/03/02 07:20:30;;;;;;;24.08;13.45;;;;;;;1.54;69.05;102446.47;5051369;28;20021;-76
2022/03/02 07:22:57;;;;;;;25.20;14.77;;;;;;;1.57;68.99;102450.03;5050931;28;20473;-76
2022/03/02 07:25:27;;;;;;;25.98;13.13;;;;;;;1.66;69.38;102462.34;5049090;28;20025;-76
2022/03/02 07:27:55;;;;;;;24.40;13.02;;;;;;;1.70;68.75;102460.75;5051836;28;20028;-76
2022/03/02 07:30:21;;;;;;;21.40;12.90;;;;;;;1.76;67.34;102459.28;5050047;28;20032;-76
2022/03/02 07:32:47;;;;;;;25.77;13.15;;;;;;;1.83;68.56;102460.41;5051053;28;20035;-76
2022/03/02 07:35:15;;;;;;;25.38;13.70;;;;;;;1.90;66.76;102454.69;5051504;28;20032;-77
2022/03/02 07:37:43;;;;;;;24.65;13.35;;;;;;;1.97;67.36;102456.69;5052032;28;20047;-76
2022/03/02 07:40:10;;;;;;;23.17;14.43;;;;;;;2.04;68.23;102462.94;5050006;28;20019;-76
2022/03/02 07:42:36;;;;;;;26.20;14.35;;;;;;;2.07;67.31;102456.19;5052176;28;20028;-76
2022/03/02 07:45:03;;;;;;;24.73;13.88;;;;;;;2.12;66.99;102461.50;5051268;28;20029;-77
2022/03/02 07:47:29;;;;;;;23.20;14.35;;;;;;;2.16;66.60;102449.63;5050408;28;20053;-76
2022/03/02 07:49:54;;;;;;;26.50;14.05;;;;;;;2.19;65.28;102444.59;5050570;28;20039;-77
2022/03/02 07:52:25;;;;;;;23.50;13.77;;;;;;;2.22;65.59;102445.56;5050661;28;20041;-77
2022/03/02 07:54:57;;;;;;;24.48;13.52;;;;;;;2.22;66.13;102439.56;5050367;28;20074;-76
2022/03/02 07:57:24;;;;;;;23.48;14.23;;;;;;;2.27;65.52;102440.63;5041491;28;20435;-76
2022/03/02 07:59:51;;;;;;;25.17;13.18;;;;;;;2.32;65.09;102436.50;5051386;28;20029;-76
2022/03/02 08:02:19;;;;;;;22.33;13.52;;;;;;;2.37;64.82;102432.41;5050675;28;20021;-76
2022/03/02 08:04:47;;;;;;;22.45;13.75;;;;;;;2.50;65.01;102437.16;5051902;28;20369;-76
2022/03/02 08:07:12;;;;;;;22.25;13.35;;;;;;;2.58;64.56;102430.59;5051187;28;20039;-76
2022/03/02 08:09:38;;;;;;;25.88;14.27;;;;;;;2.65;63.71;102418.81;5051007;28;20120;-76
2022/03/02 08:12:06;;;;;;;24.42;14.32;;;;;;;2.85;63.66;102428.91;5051359;28;20021;-76
2022/03/02 08:14:32;;;;;;;22.25;12.55;;;;;;;2.96;62.81;102436.16;5050909;28;20017;-76
2022/03/02 08:16:58;;;;;;;22.63;13.40;;;;;;;3.07;62.34;102433.03;5051415;28;20036;-76
2022/03/02 08:19:23;;;;;;;24.40;13.35;;;;;;;3.19;63.01;102425.72;5051315;28;20036;-76
2022/03/02 08:22:19;;;;;;;27.40;14.32;;;;;;;3.28;63.02;102426.88;5050054;28;20472;-77
2022/03/02 08:25:00;;;;;;;23.80;14.18;;;;;;;3.39;62.43;102418.63;5051139;28;20033;-76
2022/03/02 08:27:26;;;;;;;24.38;13.20;;;;;;;3.48;60.40;102422.34;5051288;28;20033;-76
2022/03/02 08:29:56;;;;;;;21.30;12.95;;;;;;;3.59;60.71;102420.09;5050495;28;20095;-76
2022/03/02 08:32:22;;;;;;;24.85;13.57;;;;;;;3.67;59.54;102420.34;5050950;28;20025;-76
2022/03/02 08:34:48;;;;;;;23.40;13.70;;;;;;;3.80;59.59;102421.59;5051461;28;20025;-76
2022/03/02 08:37:17;;;;;;;23.83;13.85;;;;;;;3.85;60.25;102422.59;5052723;28;20037;-76
2022/03/02 08:39:43;;;;;;;25.83;13.40;;;;;;;3.90;58.30;102418.44;5055384;28;20033;-76
2022/03/02 08:42:08;;;;;;;20.52;12.32;;;;;;;3.94;59.02;102415.13;5054681;28;20035;-76
2022/03/02 08:44:35;;;;;;;22.00;13.75;;;;;;;3.98;58.97;102412.66;5054503;28;20029;-76
2022/03/02 08:47:00;;;;;;;21.92;12.98;;;;;;;4.05;58.78;102412.84;5054562;28;20060;-76
2022/03/02 08:49:25;;;;;;;23.98;13.45;;;;;;;4.09;59.05;102412.13;5055042;28;20025;-76
2022/03/02 08:51:51;;;;;;;23.77;12.68;;;;;;;4.18;59.15;102407.19;5054255;28;20490;-76
2022/03/02 08:54:19;;;;;;;25.23;13.45;;;;;;;4.28;59.01;102411.75;5054704;28;20028;-76
2022/03/02 08:56:45;;;;;;;20.10;12.23;;;;;;;4.47;57.84;102416.59;5054337;28;20059;-76
2022/03/02 08:59:13;;;;;;;20.92;12.70;;;;;;;4.45;57.74;102405.38;5054335;28;20036;-76
2022/03/02 09:01:43;;;;;;;23.58;12.10;;;;;;;4.49;57.52;102406.31;5054890;28;20048;-76
2022/03/02 09:04:13;;;;;;;25.45;13.13;;;;;;;4.58;55.85;102405.72;5053591;28;20474;-76
2022/03/02 09:06:38;;;;;;;19.92;12.82;;;;;;;4.64;53.91;102398.09;5054958;28;20033;-76
2022/03/02 09:09:05;;;;;;;19.70;12.07;;;;;;;4.70;54.15;102401.69;5054401;28;20021;-76
2022/03/02 09:11:31;;;;;;;20.33;12.23;;;;;;;4.74;53.72;102399.19;5053770;28;20029;-76
2022/03/02 09:13:56;;;;;;;21.48;12.15;;;;;;;4.84;53.22;102399.50;5054229;28;20544;-76
2022/03/02 09:16:22;;;;;;;19.98;12.07;;;;;;;4.91;53.33;102400.50;5054444;28;20029;-76
2022/03/02 09:18:47;;;;;;;21.88;11.73;;;;;;;5.00;52.35;102394.69;5053762;28;20483;-76
2022/03/02 09:21:14;;;;;;;20.35;12.88;;;;;;;5.13;53.38;102402.78;5054219;28;20060;-76
2022/03/02 09:23:43;;;;;;;21.05;12.55;;;;;;;5.24;53.52;102387.53;5054602;28;20063;-76
2022/03/02 09:26:12;;;;;;;25.15;11.93;;;;;;;5.35;53.33;102393.78;5053177;28;20029;-76
2022/03/02 09:28:41;;;;;;;17.65;11.25;;;;;;;5.50;51.00;102392.41;5054331;28;20067;-76
2022/03/02 09:31:09;;;;;;;20.55;11.95;;;;;;;5.60;50.39;102397.81;5053989;28;20461;-76
2022/03/02 09:33:35;;;;;;;20.20;11.52;;;;;;;5.70;50.18;102396.31;5053513;28;20040;-76
2022/03/02 09:36:03;;;;;;;20.67;12.35;;;;;;;5.81;51.60;102386.16;5053971;28;20028;-76
2022/03/02 09:38:31;;;;;;;21.05;12.73;;;;;;;5.86;50.67;102371.63;5053999;28;20025;-76
2022/03/02 09:41:09;;;;;;;17.02;11.45;;;;;;;6.05;49.72;102385.84;5053074;28;20050;-76
2022/03/02 09:43:36;;;;;;;17.92;11.07;;;;;;;6.09;50.66;102374.69;5054093;28;20503;-76
2022/03/02 09:46:04;;;;;;;18.33;10.80;;;;;;;6.22;50.64;102381.00;5053147;28;20037;-77
2022/03/02 09:48:49;;;;;;;18.92;11.13;;;;;;;6.27;51.13;102377.63;5053033;28;20045;-76
2022/03/02 09:51:22;;;;;;;19.63;11.40;;;;;;;6.33;49.45;102375.16;5053665;28;20374;-76
2022/03/02 09:53:49;;;;;;;20.13;11.25;;;;;;;6.41;47.47;102369.22;5053288;28;20025;-76
2022/03/02 09:56:19;;;;;;;18.08;11.20;;;;;;;6.47;47.43;102366.75;5053602;28;20021;-76
2022/03/02 09:58:49;;;;;;;19.38;11.15;;;;;;;6.50;46.81;102361.63;5053912;28;20415;-76
2022/03/02 10:01:15;;;;;;;17.55;10.98;;;;;;;6.56;45.62;102361.75;5052683;28;20021;-76
2022/03/02 10:03:46;;;;;;;18.95;11.82;;;;;;;6.64;46.87;102360.16;5053845;28;20048;-76
2022/03/02 10:06:13;;;;;;;18.77;12.10;;;;;;;6.69;45.69;102353.31;5053007;28;20025;-76
2022/03/02 10:08:49;;;;;;;15.85;10.75;;;;;;;6.81;46.88;102365.63;5053144;28;20029;-76
2022/03/02 10:11:19;;;;;;;17.58;11.15;;;;;;;6.93;44.94;102363.25;5053217;28;20477;-76
2022/03/02 10:13:45;;;;;;;19.98;10.80;;;;;;;6.99;44.30;102363.31;5053496;28;20384;-76
2022/03/02 10:16:19;;;;;;;17.33;10.80;;;;;;;7.11;44.93;102346.22;5051912;28;20032;-76
2022/03/02 10:18:54;;;;;;;18.63;11.02;;;;;;;7.17;44.58;102362.72;5053377;28;20033;-76
2022/03/02 10:21:32;;;;;;;16.45;10.88;;;;;;;7.26;43.31;102362.88;5052020;28;20025;-76
2022/03/02 10:24:03;;;;;;;19.23;10.35;;;;;;;7.33;43.28;102362.97;5052541;28;20128;-76
2022/03/02 10:26:31;;;;;;;16.65;10.93;;;;;;;7.42;43.73;102356.19;5053045;28;20043;-76
2022/03/02 10:29:23;;;;;;;16.92;10.73;;;;;;;7.51;44.82;102347.63;5052933;28;20028;-76
2022/03/02 10:31:59;;;;;;;16.98;10.50;;;;;;;7.61;42.69;102344.28;5047422;28;20087;-77
2022/03/02 10:34:51;;;;;;;18.20;10.43;;;;;;;7.68;44.04;102355.63;5049523;28;20427;-77
2022/03/02 10:37:19;;;;;;;21.17;11.18;;;;;;;7.78;42.47;102354.88;5043315;28;20036;-78
2022/03/02 10:40:09;;;;;;;18.85;11.38;;;;;;;7.84;43.89;102351.50;5049884;28;20483;-77
2022/03/02 10:42:37;;;;;;;20.67;11.88;;;;;;;7.91;44.16;102346.41;5044810;28;20108;-77
2022/03/02 10:45:13;;;;;;;18.52;11.75;;;;;;;7.99;43.69;102346.50;5055283;28;20122;-76
2022/03/02 10:47:59;;;;;;;19.40;11.60;;;;;;;8.02;43.69;102337.88;5052530;28;20171;-77
2022/03/02 10:50:28;;;;;;;16.40;10.98;;;;;;;8.16;42.28;102354.47;5051592;28;20079;-77
2022/03/02 10:52:56;;;;;;;16.67;10.38;;;;;;;8.28;43.39;102348.53;5052486;28;20102;-77
2022/03/02 10:55:22;;;;;;;17.50;11.18;;;;;;;8.34;41.96;102341.66;5052216;28;20025;-76
2022/03/02 10:57:53;;;;;;;18.25;11.75;;;;;;;8.41;42.61;102348.69;5051780;28;20393;-77
2022/03/02 11:00:21;;;;;;;19.98;11.27;;;;;;;8.50;42.05;102345.31;5050980;28;20048;-77
2022/03/02 11:02:51;;;;;;;18.38;11.18;;;;;;;8.59;40.91;102340.19;5052428;28;20025;-77
2022/03/02 11:05:18;;;;;;;16.58;10.98;;;;;;;8.70;41.92;102337.69;5051493;28;20029;-77
2022/03/02 11:07:45;;;;;;;19.67;11.80;;;;;;;8.76;41.15;102329.06;5052097;28;20041;-77
2022/03/02 11:10:13;;;;;;;19.98;11.90;;;;;;;8.80;41.91;102331.72;5051469;28;20028;-77
2022/03/02 11:12:45;;;;;;;16.55;11.20;;;;;;;8.88;41.21;102324.81;5050558;28;20086;-77
2022/03/02 11:15:12;;;;;;;19.23;11.13;;;;;;;9.00;40.35;102330.97;5050185;28;20550;-77
2022/03/02 11:17:50;;;;;;;17.23;11.02;;;;;;;9.03;41.32;102315.41;5051333;28;20032;-76